createdAt,value
2023-10-23T00:00:57.588Z,96.79
2023-10-23T00:01:57.433Z,96.95
2023-10-23T00:02:57.479Z,96.64
2023-10-23T00:03:57.615Z,96.64
2023-10-23T00:04:57.514Z,96.79
2023-10-23T00:05:57.311Z,96.89
2023-10-23T00:06:57.351Z,96.79
2023-10-23T00:07:57.254Z,97.09
2023-10-23T00:08:57.218Z,96.94
2023-10-23T00:09:57.236Z,96.99
2023-10-23T00:10:57.139Z,96.99
2023-10-23T00:11:57.097Z,96.94
2023-10-23T00:12:57.136Z,96.99
2023-10-23T00:13:57.033Z,96.79
2023-10-23T00:14:57.002Z,96.63
2023-10-23T00:15:56.977Z,96.94
2023-10-23T00:16:56.980Z,96.94
2023-10-23T00:17:56.953Z,97.04
2023-10-23T00:18:56.995Z,97.14
2023-10-23T00:19:56.852Z,97.14
2023-10-23T00:20:56.807Z,97.04
2023-10-23T00:21:56.761Z,97.45
2023-10-23T00:22:56.739Z,97.14
2023-10-23T00:23:56.731Z,97.45
2023-10-23T00:24:56.763Z,97.45
2023-10-23T00:25:56.664Z,97.14
2023-10-23T00:26:56.612Z,97.86
2023-10-23T00:27:56.574Z,97.86
2023-10-23T00:28:56.550Z,97.96
2023-10-23T00:29:56.520Z,97.86
2023-10-23T00:30:56.610Z,97.96
2023-10-23T00:31:56.431Z,98.00
2023-10-23T00:32:56.439Z,97.91
2023-10-23T00:33:56.441Z,98.00
2023-10-23T00:34:56.341Z,98.05
2023-10-23T00:35:56.294Z,98.00
2023-10-23T00:36:56.364Z,97.85
2023-10-23T00:37:56.242Z,97.95
2023-10-23T00:38:56.207Z,97.64
2023-10-23T00:39:56.206Z,97.64
2023-10-23T00:40:56.141Z,97.74
2023-10-23T00:41:56.108Z,97.69
2023-10-23T00:42:56.200Z,97.74
2023-10-23T00:43:56.031Z,97.95
2023-10-23T00:44:55.995Z,97.95
2023-10-23T00:45:56.149Z,97.95
2023-10-23T00:46:56.034Z,97.99
2023-10-23T00:47:55.962Z,97.89
2023-10-23T00:48:55.996Z,97.89
2023-10-23T00:49:55.875Z,97.99
2023-10-23T00:50:55.916Z,97.99
2023-10-23T00:51:55.866Z,97.99
2023-10-23T00:52:55.733Z,98.14
2023-10-23T00:53:55.758Z,97.99
2023-10-23T00:54:55.751Z,98.04
2023-10-23T00:55:55.642Z,97.99
2023-10-23T00:56:55.611Z,97.58
2023-10-23T00:57:55.657Z,98.10
2023-10-23T00:58:55.597Z,97.53
2023-10-23T00:59:55.488Z,97.53
2023-10-23T01:00:55.640Z,98.20
2023-10-23T01:01:55.444Z,98.04
2023-10-23T01:02:55.422Z,98.14
2023-10-23T01:03:55.369Z,98.14
2023-10-23T01:04:55.452Z,98.14
2023-10-23T01:05:55.334Z,98.04
2023-10-23T01:06:55.361Z,98.04
2023-10-23T01:07:55.226Z,98.04
2023-10-23T01:08:55.202Z,98.04
2023-10-23T01:09:55.221Z,98.04
2023-10-23T01:10:55.508Z,98.14
2023-10-23T01:11:55.106Z,97.83
2023-10-23T01:12:55.113Z,98.04
2023-10-23T01:13:55.071Z,97.94
2023-10-23T01:14:55.023Z,98.45
2023-10-23T01:15:54.978Z,98.45
2023-10-23T01:16:55.080Z,98.60
2023-10-23T01:17:54.952Z,98.60
2023-10-23T01:18:54.952Z,98.50
2023-10-23T01:19:54.856Z,98.45
2023-10-23T01:20:54.803Z,98.70
2023-10-23T01:21:54.804Z,98.66
2023-10-23T01:22:54.801Z,98.60
2023-10-23T01:23:54.719Z,98.70
2023-10-23T01:24:54.678Z,98.70
2023-10-23T01:25:54.654Z,98.91
2023-10-23T01:26:54.640Z,98.55
2023-10-23T01:27:54.649Z,98.91
2023-10-23T01:28:54.608Z,98.66
2023-10-23T01:29:54.510Z,98.70
2023-10-23T01:30:54.517Z,98.60
2023-10-23T01:31:54.481Z,98.60
2023-10-23T01:32:54.405Z,98.86
2023-10-23T01:33:54.397Z,98.39
2023-10-23T01:34:54.398Z,98.66
2023-10-23T01:35:54.306Z,98.45
2023-10-23T01:36:54.327Z,98.45
2023-10-23T01:37:54.250Z,98.35
2023-10-23T01:38:54.193Z,98.35
2023-10-23T01:39:54.211Z,98.45
2023-10-23T01:40:54.214Z,98.66
2023-10-23T01:41:54.111Z,98.55
2023-10-23T01:42:54.085Z,98.30
2023-10-23T01:43:54.017Z,98.61
2023-10-23T01:44:54.000Z,98.82
2023-10-23T01:45:53.983Z,98.30
2023-10-23T01:46:54.000Z,98.82
2023-10-23T01:47:53.929Z,98.61
2023-10-23T01:48:53.913Z,98.51
2023-10-23T01:49:53.819Z,98.82
2023-10-23T01:50:53.816Z,98.41
2023-10-23T01:51:53.808Z,98.51
2023-10-23T01:52:53.781Z,98.51
2023-10-23T01:53:53.683Z,98.55
2023-10-23T01:54:53.763Z,98.86
2023-10-23T01:55:53.635Z,98.41
2023-10-23T01:56:53.595Z,98.61
2023-10-23T01:57:53.603Z,98.57
2023-10-23T01:58:53.616Z,98.51
2023-10-23T01:59:53.487Z,98.51
2023-10-23T02:00:53.523Z,98.51
2023-10-23T02:01:53.439Z,98.41
2023-10-23T02:02:53.549Z,98.41
2023-10-23T02:03:53.572Z,98.41
2023-10-23T02:04:53.383Z,98.35
2023-10-23T02:05:53.284Z,97.94
2023-10-23T02:06:53.292Z,97.73
2023-10-23T02:07:53.200Z,98.25
2023-10-23T02:08:53.185Z,98.04
2023-10-23T02:09:53.155Z,98.25
2023-10-23T02:10:53.165Z,97.94
2023-10-23T02:11:53.071Z,98.14
2023-10-23T02:12:53.055Z,98.04
2023-10-23T02:13:53.003Z,98.29
2023-10-23T02:14:52.976Z,98.25
2023-10-23T02:15:53.065Z,98.04
2023-10-23T02:16:52.932Z,98.08
2023-10-23T02:17:52.994Z,98.19
2023-10-23T02:18:52.890Z,98.19
2023-10-23T02:19:52.793Z,98.08
2023-10-23T02:20:52.873Z,98.29
2023-10-23T02:21:52.803Z,98.08
2023-10-23T02:22:52.746Z,98.19
2023-10-23T02:23:56.963Z,98.08
2023-10-23T02:24:55.459Z,97.78
2023-10-23T02:25:52.610Z,97.78
2023-10-23T02:26:52.637Z,97.82
2023-10-23T02:27:52.588Z,98.08
2023-10-23T02:28:52.525Z,97.78
2023-10-23T02:29:52.479Z,98.08
2023-10-23T02:30:52.534Z,98.08
2023-10-23T02:31:52.412Z,97.88
2023-10-23T02:32:52.393Z,98.24
2023-10-23T02:33:52.488Z,98.39
2023-10-23T02:34:52.292Z,98.50
2023-10-23T02:35:52.328Z,98.60
2023-10-23T02:36:52.409Z,98.50
2023-10-23T02:37:52.283Z,98.50
2023-10-23T02:38:52.332Z,98.60
2023-10-23T02:39:52.392Z,98.39
2023-10-23T02:40:52.105Z,98.25
2023-10-23T02:41:52.123Z,98.35
2023-10-23T02:42:52.067Z,98.14
2023-10-23T02:43:51.998Z,98.25
2023-10-23T02:44:51.970Z,98.35
2023-10-23T02:45:51.973Z,98.45
2023-10-23T02:46:52.614Z,98.35
2023-10-23T02:47:52.030Z,98.25
2023-10-23T02:48:52.025Z,98.14
2023-10-23T02:49:51.792Z,98.25
2023-10-23T02:50:51.762Z,98.19
2023-10-23T02:51:51.831Z,98.39
2023-10-23T02:52:51.707Z,98.39
2023-10-23T02:53:51.726Z,98.19
2023-10-23T02:54:51.744Z,98.60
2023-10-23T02:55:51.608Z,98.29
2023-10-23T02:56:51.555Z,98.24
2023-10-23T02:57:51.538Z,98.19
2023-10-23T02:58:51.497Z,98.24
2023-10-23T02:59:51.525Z,98.39
2023-10-23T03:00:51.436Z,98.33
2023-10-23T03:01:51.404Z,98.44
2023-10-23T03:02:51.381Z,98.65
2023-10-23T03:03:51.486Z,98.49
2023-10-23T03:04:51.337Z,98.65
2023-10-23T03:05:51.249Z,98.69
2023-10-23T03:06:51.227Z,98.59
2023-10-23T03:07:51.186Z,98.44
2023-10-23T03:08:51.139Z,98.79
2023-10-23T03:09:51.182Z,98.63
2023-10-23T03:10:51.143Z,98.79
2023-10-23T03:11:51.041Z,98.84
2023-10-23T03:12:51.080Z,99.05
2023-10-23T03:13:50.974Z,98.74
2023-10-23T03:14:50.938Z,98.74
2023-10-23T03:15:50.971Z,98.53
2023-10-23T03:16:50.980Z,98.84
2023-10-23T03:17:50.978Z,98.43
2023-10-23T03:18:50.837Z,98.43
2023-10-23T03:19:50.881Z,98.53
2023-10-23T03:20:50.730Z,98.53
2023-10-23T03:21:50.729Z,98.53
2023-10-23T03:22:50.656Z,98.74
2023-10-23T03:23:50.702Z,98.59
2023-10-23T03:24:50.616Z,98.74
2023-10-23T03:25:50.619Z,98.59
2023-10-23T03:26:50.515Z,98.49
2023-10-23T03:27:50.604Z,98.74
2023-10-23T03:28:50.451Z,98.79
2023-10-23T03:29:50.496Z,98.74
2023-10-23T03:30:50.419Z,98.74
2023-10-23T03:31:50.371Z,98.74
2023-10-23T03:32:50.358Z,98.58
2023-10-23T03:33:50.337Z,98.68
2023-10-23T03:34:50.250Z,98.68
2023-10-23T03:35:50.263Z,98.58
2023-10-23T03:36:50.211Z,98.58
2023-10-23T03:37:50.145Z,98.52
2023-10-23T03:38:50.098Z,98.47
2023-10-23T03:39:50.081Z,98.68
2023-10-23T03:40:50.031Z,98.68
2023-10-23T03:41:50.061Z,98.79
2023-10-23T03:42:49.995Z,98.62
2023-10-23T03:43:49.936Z,98.68
2023-10-23T03:44:49.896Z,98.68
2023-10-23T03:45:49.997Z,98.68
2023-10-23T03:46:49.870Z,98.68
2023-10-23T03:47:49.828Z,98.58
2023-10-23T03:48:49.867Z,98.58
2023-10-23T03:49:49.725Z,98.58
2023-10-23T03:50:49.695Z,98.58
2023-10-23T03:51:49.728Z,98.58
2023-10-23T03:52:49.620Z,98.68
2023-10-23T03:53:49.588Z,98.62
2023-10-23T03:54:49.580Z,98.62
2023-10-23T03:55:49.561Z,98.62
2023-10-23T03:56:49.482Z,98.62
2023-10-23T03:57:49.483Z,98.52
2023-10-23T03:58:49.410Z,98.83
2023-10-23T03:59:49.380Z,98.62
2023-10-23T04:00:49.387Z,98.72
2023-10-23T04:01:49.405Z,98.62
2023-10-23T04:02:49.324Z,98.67
2023-10-23T04:03:49.320Z,98.62
2023-10-23T04:04:49.256Z,98.83
2023-10-23T04:05:49.180Z,98.77
2023-10-23T04:06:49.166Z,98.77
2023-10-23T04:07:49.159Z,98.88
2023-10-23T04:08:49.061Z,98.57
2023-10-23T04:09:49.185Z,98.57
2023-10-23T04:10:48.996Z,98.77
2023-10-23T04:11:49.032Z,98.67
2023-10-23T04:12:48.955Z,98.97
2023-10-23T04:13:48.895Z,98.97
2023-10-23T04:14:48.886Z,98.97
2023-10-23T04:15:48.882Z,98.97
2023-10-23T04:16:48.833Z,98.77
2023-10-23T04:17:48.848Z,98.57
2023-10-23T04:18:48.734Z,98.67
2023-10-23T04:19:48.690Z,98.77
2023-10-23T04:20:48.649Z,98.67
2023-10-23T04:21:48.661Z,98.57
2023-10-23T04:22:48.640Z,98.88
2023-10-23T04:23:48.558Z,98.92
2023-10-23T04:24:48.644Z,98.61
2023-10-23T04:25:48.492Z,98.77
2023-10-23T04:26:48.451Z,98.82
2023-10-23T04:27:48.443Z,98.92
2023-10-23T04:28:48.438Z,98.61
2023-10-23T04:29:48.347Z,98.92
2023-10-23T04:30:48.338Z,98.82
2023-10-23T04:31:48.361Z,98.71
2023-10-23T04:32:48.237Z,98.92
2023-10-23T04:33:48.326Z,98.82
2023-10-23T04:34:48.233Z,98.82
2023-10-23T04:35:48.856Z,98.82
2023-10-23T04:36:48.201Z,98.92
2023-10-23T04:37:48.075Z,98.61
2023-10-23T04:38:48.045Z,98.61
2023-10-23T04:39:48.044Z,98.61
2023-10-23T04:40:48.016Z,98.92
2023-10-23T04:41:47.946Z,98.71
2023-10-23T04:42:47.956Z,98.61
2023-10-23T04:43:47.914Z,98.61
2023-10-23T04:44:47.828Z,98.86
2023-10-23T04:45:47.878Z,98.76
2023-10-23T04:46:47.830Z,98.86
2023-10-23T04:47:47.766Z,98.76
2023-10-23T04:48:47.697Z,98.76
2023-10-23T04:49:47.659Z,98.66
2023-10-23T04:50:47.616Z,98.76
2023-10-23T04:51:47.659Z,98.86
2023-10-23T04:52:47.566Z,98.86
2023-10-23T04:53:47.521Z,98.76
2023-10-23T04:54:47.502Z,98.76
2023-10-23T04:55:47.450Z,99.01
2023-10-23T04:56:47.431Z,99.01
2023-10-23T04:57:47.613Z,98.91
2023-10-23T04:58:47.377Z,98.80
2023-10-23T04:59:47.358Z,98.91
2023-10-23T05:00:47.369Z,99.01
2023-10-23T05:01:47.260Z,98.91
2023-10-23T05:02:47.235Z,98.91
2023-10-23T05:03:49.853Z,98.91
2023-10-23T05:04:47.225Z,98.80
2023-10-23T05:05:47.104Z,98.80
2023-10-23T05:06:47.101Z,99.11
2023-10-23T05:07:47.031Z,98.80
2023-10-23T05:08:47.000Z,98.70
2023-10-23T05:09:47.072Z,98.80
2023-10-23T05:10:46.929Z,98.80
2023-10-23T05:11:46.890Z,98.91
2023-10-23T05:12:46.897Z,99.11
2023-10-23T05:13:46.827Z,98.91
2023-10-23T05:14:46.787Z,98.80
2023-10-23T05:15:46.899Z,98.91
2023-10-23T05:16:46.754Z,98.91
2023-10-23T05:17:46.707Z,98.91
2023-10-23T05:18:46.802Z,98.91
2023-10-23T05:19:46.613Z,98.80
2023-10-23T05:20:46.650Z,98.80
2023-10-23T05:21:46.635Z,98.91
2023-10-23T05:22:46.503Z,98.91
2023-10-23T05:23:46.478Z,98.75
2023-10-23T05:24:46.490Z,98.80
2023-10-23T05:25:46.400Z,98.70
2023-10-23T05:26:46.439Z,98.80
2023-10-23T05:27:46.396Z,98.80
2023-10-23T05:28:46.303Z,98.70
2023-10-23T05:29:46.254Z,98.91
2023-10-23T05:30:46.267Z,98.96
2023-10-23T05:31:46.213Z,98.70
2023-10-23T05:32:46.289Z,98.80
2023-10-23T05:33:46.130Z,98.80
2023-10-23T05:34:46.098Z,98.91
2023-10-23T05:35:46.039Z,98.91
2023-10-23T05:36:46.051Z,98.91
2023-10-23T05:37:45.973Z,98.91
2023-10-23T05:38:45.999Z,98.91
2023-10-23T05:39:45.924Z,98.70
2023-10-23T05:40:45.901Z,98.70
2023-10-23T05:41:45.831Z,98.91
2023-10-23T05:42:45.843Z,98.86
2023-10-23T05:43:45.900Z,99.07
2023-10-23T05:44:45.732Z,99.07
2023-10-23T05:45:45.760Z,98.86
2023-10-23T05:46:45.714Z,99.07
2023-10-23T05:47:45.641Z,98.86
2023-10-23T05:48:45.654Z,99.07
2023-10-23T05:49:45.599Z,99.07
2023-10-23T05:50:45.518Z,98.86
2023-10-23T05:51:45.576Z,98.76
2023-10-23T05:52:45.478Z,98.97
2023-10-23T05:53:45.410Z,98.76
2023-10-23T05:54:45.443Z,99.07
2023-10-23T05:55:45.388Z,99.07
2023-10-23T05:56:45.307Z,98.76
2023-10-23T05:57:45.321Z,98.86
2023-10-23T05:58:45.237Z,98.86
2023-10-23T05:59:45.200Z,99.07
2023-10-23T06:00:45.206Z,98.97
2023-10-23T06:01:45.218Z,98.97
2023-10-23T06:02:45.134Z,98.66
2023-10-23T06:03:45.158Z,98.86
2023-10-23T06:04:45.132Z,98.86
2023-10-23T06:05:44.986Z,98.76
2023-10-23T06:06:45.108Z,98.86
2023-10-23T06:07:45.027Z,98.66
2023-10-23T06:08:44.900Z,98.97
2023-10-23T06:09:44.897Z,98.66
2023-10-23T06:10:44.813Z,98.97
2023-10-23T06:11:44.780Z,98.97
2023-10-23T06:12:44.843Z,98.76
2023-10-23T06:13:44.705Z,98.97
2023-10-23T06:14:44.671Z,98.86
2023-10-23T06:15:44.724Z,98.76
2023-10-23T06:16:44.654Z,98.71
2023-10-23T06:17:44.672Z,98.82
2023-10-23T06:18:44.562Z,98.92
2023-10-23T06:19:44.486Z,98.82
2023-10-23T06:20:44.475Z,98.71
2023-10-23T06:21:44.470Z,98.61
2023-10-23T06:22:44.387Z,98.92
2023-10-23T06:23:44.410Z,98.71
2023-10-23T06:24:44.330Z,98.82
2023-10-23T06:25:44.286Z,98.97
2023-10-23T06:26:44.989Z,98.88
2023-10-23T06:27:44.268Z,98.88
2023-10-23T06:28:44.179Z,98.88
2023-10-23T06:29:44.194Z,98.88
2023-10-23T06:30:44.123Z,98.62
2023-10-23T06:31:44.130Z,98.62
2023-10-23T06:32:44.063Z,98.47
2023-10-23T06:33:44.321Z,98.52
2023-10-23T06:34:43.968Z,98.47
2023-10-23T06:35:43.983Z,98.58
2023-10-23T06:36:44.032Z,98.47
2023-10-23T06:37:43.854Z,98.37
2023-10-23T06:38:43.839Z,98.37
2023-10-23T06:39:43.781Z,98.53
2023-10-23T06:40:43.842Z,98.53
2023-10-23T06:41:43.822Z,98.53
2023-10-23T06:42:43.690Z,99.00
2023-10-23T06:43:43.642Z,98.69
2023-10-23T06:44:43.634Z,98.59
2023-10-23T06:46:01.204Z,98.59
2023-10-23T06:46:43.631Z,98.18
2023-10-23T06:47:43.612Z,98.33
2023-10-23T06:48:43.487Z,97.99
2023-10-23T06:49:43.436Z,98.08
2023-10-23T06:50:43.482Z,98.29
2023-10-23T06:51:43.365Z,98.08
2023-10-23T06:52:43.331Z,97.53
2023-10-23T06:53:43.370Z,97.73
2023-10-23T06:54:43.266Z,97.94
2023-10-23T06:55:43.227Z,98.04
2023-10-23T06:56:43.244Z,97.79
2023-10-23T06:57:43.155Z,97.89
2023-10-23T06:58:43.125Z,97.79
2023-10-23T06:59:43.475Z,97.69
2023-10-23T07:00:43.059Z,97.79
2023-10-23T07:01:45.311Z,97.69
2023-10-23T07:02:43.068Z,97.79
2023-10-23T07:03:43.040Z,97.64
2023-10-23T07:04:42.932Z,97.64
2023-10-23T07:05:43.014Z,97.70
2023-10-23T07:06:42.869Z,97.91
2023-10-23T07:07:42.835Z,97.80
2023-10-23T07:08:42.823Z,97.80
2023-10-23T07:09:42.761Z,96.83
2023-10-23T07:10:42.750Z,97.55
2023-10-23T07:11:42.831Z,97.65
2023-10-23T07:12:42.680Z,96.94
2023-10-23T07:13:42.670Z,97.24
2023-10-23T07:14:42.633Z,97.24
2023-10-23T07:15:42.638Z,96.79
2023-10-23T07:16:42.645Z,96.99
2023-10-23T07:17:42.660Z,97.05
2023-10-23T07:18:42.522Z,96.84
2023-10-23T07:19:42.431Z,96.84
2023-10-23T07:20:42.483Z,97.05
2023-10-23T07:21:42.382Z,96.95
2023-10-23T07:22:42.346Z,96.80
2023-10-23T07:23:42.383Z,97.21
2023-10-23T07:24:42.270Z,96.49
2023-10-23T07:25:42.229Z,96.29
2023-10-23T07:26:42.244Z,96.45
2023-10-23T07:27:42.177Z,96.14
2023-10-23T07:28:42.164Z,96.04
2023-10-23T07:29:42.162Z,96.45
2023-10-23T07:30:42.074Z,96.20
2023-10-23T07:31:42.068Z,96.51
2023-10-23T07:32:43.634Z,95.89
2023-10-23T07:33:42.122Z,95.95
2023-10-23T07:34:41.952Z,95.85
2023-10-23T07:35:52.583Z,96.77
2023-10-23T07:36:41.975Z,96.67
2023-10-23T07:37:41.831Z,95.80
2023-10-23T07:38:41.833Z,95.85
2023-10-23T07:39:41.913Z,96.01
2023-10-23T07:40:41.744Z,95.90
2023-10-23T07:41:41.774Z,95.80
2023-10-23T07:42:41.721Z,95.60
2023-10-23T07:43:41.666Z,95.45
2023-10-23T07:44:41.599Z,95.35
2023-10-23T07:45:41.616Z,95.45
2023-10-23T07:46:41.586Z,95.41
2023-10-23T07:47:41.594Z,95.10
2023-10-23T07:48:41.523Z,95.41
2023-10-23T07:49:41.439Z,95.51
2023-10-23T07:50:41.400Z,95.00
2023-10-23T07:51:41.423Z,95.57
2023-10-23T07:52:41.402Z,95.41
2023-10-23T07:53:41.300Z,94.79
2023-10-23T07:54:41.274Z,95.10
2023-10-23T07:55:41.235Z,95.36
2023-10-23T07:56:41.208Z,95.10
2023-10-23T07:57:41.205Z,94.85
2023-10-23T07:58:41.200Z,94.34
2023-10-23T07:59:41.420Z,94.95
2023-10-23T08:00:41.091Z,94.81
2023-10-23T08:01:41.153Z,94.71
2023-10-23T08:02:41.112Z,94.91
2023-10-23T08:03:41.167Z,94.15
2023-10-23T08:04:41.175Z,94.46
2023-10-23T08:05:40.919Z,94.87
2023-10-23T08:06:40.917Z,94.15
2023-10-23T08:07:40.856Z,94.42
2023-10-23T08:08:40.825Z,94.21
2023-10-23T08:09:41.034Z,93.90
2023-10-23T08:10:40.822Z,94.31
2023-10-23T08:11:40.789Z,93.86
2023-10-23T08:12:40.731Z,93.90
2023-10-23T08:13:40.658Z,93.70
2023-10-23T08:14:40.632Z,93.66
2023-10-23T08:15:40.747Z,93.66
2023-10-23T08:16:40.692Z,93.55
2023-10-23T08:17:42.959Z,93.86
2023-10-23T08:18:41.967Z,93.55
2023-10-23T08:19:40.893Z,93.62
2023-10-23T08:20:40.482Z,93.51
2023-10-23T08:21:40.449Z,93.62
2023-10-23T08:22:40.382Z,93.51
2023-10-23T08:23:40.386Z,93.62
2023-10-23T08:24:40.405Z,93.57
2023-10-23T08:25:40.357Z,93.87
2023-10-23T08:26:40.249Z,93.87
2023-10-23T08:27:40.282Z,93.47
2023-10-23T08:29:40.305Z,93.43
2023-10-23T08:30:40.147Z,93.02
2023-10-23T08:31:40.928Z,93.43
2023-10-23T08:32:51.947Z,93.32
2023-10-23T08:33:40.210Z,93.32
2023-10-23T08:34:40.054Z,92.82
2023-10-23T08:35:39.987Z,93.02
2023-10-23T08:36:40.027Z,93.18
2023-10-23T08:37:40.002Z,92.97
2023-10-23T08:38:39.897Z,92.87
2023-10-23T08:39:40.087Z,92.87
2023-10-23T08:40:39.832Z,93.38
2023-10-23T08:41:42.527Z,92.87
2023-10-23T08:42:39.764Z,92.67
2023-10-23T08:43:40.397Z,93.13
2023-10-23T08:44:39.688Z,92.22
2023-10-23T08:45:40.356Z,92.32
2023-10-23T08:46:39.680Z,92.32
2023-10-23T08:47:39.653Z,92.48
2023-10-23T08:48:39.814Z,91.97
2023-10-23T08:49:39.774Z,92.38
2023-10-23T08:50:39.502Z,92.28
2023-10-23T08:51:39.530Z,92.38
2023-10-23T08:52:39.459Z,92.03
2023-10-23T08:53:39.462Z,92.24
2023-10-23T08:54:39.516Z,91.52
2023-10-23T08:55:39.416Z,91.99
2023-10-23T08:56:39.352Z,91.89
2023-10-23T08:57:39.309Z,92.03
2023-10-23T08:58:39.269Z,91.89
2023-10-23T08:59:39.365Z,92.19
2023-10-23T09:00:39.222Z,91.85
2023-10-23T09:01:39.713Z,92.14
2023-10-23T09:02:52.272Z,91.34
2023-10-23T09:04:04.290Z,91.44
2023-10-23T09:04:39.211Z,91.74
2023-10-23T09:05:39.211Z,91.24
2023-10-23T09:06:39.024Z,91.44
2023-10-23T09:07:39.055Z,91.39
2023-10-23T09:08:38.963Z,91.09
2023-10-23T09:09:39.081Z,91.09
2023-10-23T09:10:38.906Z,90.89
2023-10-23T09:11:38.871Z,90.64
2023-10-23T09:12:38.849Z,90.99
2023-10-23T09:13:38.820Z,90.99
2023-10-23T09:14:39.088Z,91.15
2023-10-23T09:15:38.867Z,91.09
2023-10-23T09:16:38.830Z,91.09
2023-10-23T09:17:38.747Z,91.09
2023-10-23T09:18:38.662Z,90.89
2023-10-23T09:19:39.664Z,90.89
2023-10-23T09:20:38.596Z,91.09
2023-10-23T09:21:38.626Z,91.09
2023-10-23T09:22:38.540Z,90.89
2023-10-23T09:23:38.506Z,91.39
2023-10-23T09:24:38.586Z,90.89
2023-10-23T09:25:38.452Z,90.95
2023-10-23T09:26:38.418Z,90.64
2023-10-23T09:27:38.463Z,90.84
2023-10-23T09:28:38.365Z,90.64
2023-10-23T09:29:38.460Z,91.11
2023-10-23T09:30:38.308Z,90.80
2023-10-23T09:31:38.386Z,90.70
2023-10-23T09:32:38.285Z,90.91
2023-10-23T09:33:38.275Z,90.09
2023-10-23T09:34:38.205Z,90.70
2023-10-23T09:35:38.155Z,89.79
2023-10-23T09:36:38.123Z,89.89
2023-10-23T09:37:38.099Z,89.69
2023-10-23T09:38:38.063Z,90.50
2023-10-23T09:39:38.216Z,89.95
2023-10-23T09:40:38.003Z,89.75
2023-10-23T09:41:37.975Z,89.24
2023-10-23T09:42:37.939Z,89.40
2023-10-23T09:43:37.915Z,89.40
2023-10-23T09:44:37.881Z,89.30
2023-10-23T09:45:37.916Z,89.30
2023-10-23T09:46:37.858Z,88.70
2023-10-23T09:47:37.917Z,88.65
2023-10-23T09:48:37.859Z,88.65
2023-10-23T09:49:37.890Z,88.55
2023-10-23T09:50:37.788Z,87.84
2023-10-23T09:51:38.118Z,87.95
2023-10-23T09:52:37.706Z,87.95
2023-10-23T09:53:37.622Z,88.51
2023-10-23T09:54:37.592Z,87.70
2023-10-23T09:55:37.571Z,88.77
2023-10-23T09:56:37.531Z,88.77
2023-10-23T09:57:37.591Z,87.56
2023-10-23T09:58:37.474Z,87.15
2023-10-23T09:59:37.566Z,87.96
2023-10-23T10:00:37.451Z,86.55
2023-10-23T10:01:37.523Z,87.76
2023-10-23T10:02:37.374Z,86.61
2023-10-23T10:03:37.493Z,86.00
2023-10-23T10:04:37.406Z,85.74
2023-10-23T10:05:37.281Z,86.85
2023-10-23T10:06:37.263Z,86.75
2023-10-23T10:07:37.233Z,86.04
2023-10-23T10:08:37.186Z,86.25
2023-10-23T10:09:37.287Z,86.35
2023-10-23T10:10:37.143Z,86.25
2023-10-23T10:11:37.106Z,86.04
2023-10-23T10:12:37.075Z,87.15
2023-10-23T10:13:37.061Z,87.36
2023-10-23T10:14:37.028Z,87.66
2023-10-23T10:15:37.067Z,87.05
2023-10-23T10:16:37.022Z,87.05
2023-10-23T10:17:37.042Z,86.30
2023-10-23T10:18:36.919Z,85.60
2023-10-23T10:19:36.923Z,86.51
2023-10-23T10:20:36.845Z,86.21
2023-10-23T10:21:36.878Z,85.70
2023-10-23T10:22:36.791Z,85.16
2023-10-23T10:23:36.756Z,84.75
2023-10-23T10:24:36.814Z,85.36
2023-10-23T10:25:36.718Z,85.56
2023-10-23T10:26:36.673Z,85.80
2023-10-23T10:27:36.649Z,86.51
2023-10-23T10:28:36.620Z,85.30
2023-10-23T10:29:36.595Z,85.25
2023-10-23T10:30:36.619Z,84.85
2023-10-23T10:31:36.673Z,85.05
2023-10-23T10:34:17.449Z,84.95
2023-10-23T10:34:28.970Z,85.16
2023-10-23T10:34:37.913Z,85.86
2023-10-23T10:35:42.201Z,83.74
2023-10-23T10:36:46.974Z,85.25
2023-10-23T10:37:36.396Z,84.75
2023-10-23T10:38:36.379Z,85.46
2023-10-23T10:39:36.326Z,85.66
2023-10-23T10:40:36.312Z,85.36
2023-10-23T10:41:36.258Z,84.65
2023-10-23T10:42:36.216Z,84.45
2023-10-23T10:43:36.194Z,85.36
2023-10-23T10:44:36.211Z,84.95
2023-10-23T10:45:36.135Z,84.15
2023-10-23T10:46:36.172Z,85.16
2023-10-23T10:47:36.108Z,85.36
2023-10-23T10:48:36.041Z,84.55
2023-10-23T10:49:36.027Z,84.31
2023-10-23T10:50:36.039Z,83.30
2023-10-23T10:51:35.981Z,83.80
2023-10-23T10:52:35.934Z,83.30
2023-10-23T10:53:35.919Z,83.80
2023-10-23T10:54:35.867Z,84.01
2023-10-23T10:55:35.872Z,83.70
2023-10-23T10:56:35.869Z,83.84
2023-10-23T10:57:35.797Z,83.50
2023-10-23T10:58:35.770Z,83.84
2023-10-23T10:59:35.752Z,83.34
2023-10-23T11:00:35.712Z,83.64
2023-10-23T11:01:35.825Z,83.14
2023-10-23T11:02:35.662Z,83.44
2023-10-23T11:03:35.735Z,83.44
2023-10-23T11:04:35.608Z,83.40
2023-10-23T11:05:35.589Z,83.50
2023-10-23T11:06:35.584Z,82.25
2023-10-23T11:07:35.504Z,81.35
2023-10-23T11:08:35.471Z,82.35
2023-10-23T11:09:35.447Z,82.15
2023-10-23T11:10:35.415Z,82.35
2023-10-23T11:11:36.381Z,81.95
2023-10-23T11:12:35.408Z,83.16
2023-10-23T11:13:35.333Z,81.45
2023-10-23T11:14:35.303Z,81.71
2023-10-23T11:15:35.288Z,81.41
2023-10-23T11:16:35.396Z,80.77
2023-10-23T11:17:35.219Z,80.36
2023-10-23T11:18:35.274Z,80.26
2023-10-23T11:19:35.176Z,80.77
2023-10-23T11:20:35.135Z,81.17
2023-10-23T11:21:35.107Z,80.16
2023-10-23T11:22:35.099Z,80.36
2023-10-23T11:23:35.070Z,80.50
2023-10-23T11:24:35.078Z,80.20
2023-10-23T11:25:34.993Z,81.75
2023-10-23T11:26:34.972Z,81.28
2023-10-23T11:27:34.935Z,82.70
2023-10-23T11:28:34.920Z,83.04
2023-10-23T11:29:34.882Z,83.34
2023-10-23T11:30:34.947Z,83.28
2023-10-23T11:31:34.948Z,83.98
2023-10-23T11:32:35.466Z,83.98
2023-10-23T11:33:34.768Z,84.53
2023-10-23T11:34:34.759Z,84.93
2023-10-23T11:35:34.742Z,85.24
2023-10-23T11:36:34.734Z,85.14
2023-10-23T11:37:34.654Z,85.64
2023-10-23T11:38:34.626Z,85.38
2023-10-23T11:39:34.606Z,85.28
2023-10-23T11:40:34.571Z,85.88
2023-10-23T11:41:34.545Z,86.59
2023-10-23T11:42:34.571Z,86.93
2023-10-23T11:43:34.483Z,86.49
2023-10-23T11:44:34.469Z,86.39
2023-10-23T11:45:34.434Z,86.29
2023-10-23T11:46:34.497Z,86.59
2023-10-23T11:47:34.459Z,86.29
2023-10-23T11:48:34.336Z,86.90
2023-10-23T11:49:34.307Z,86.13
2023-10-23T11:50:34.301Z,86.79
2023-10-23T11:51:34.261Z,86.39
2023-10-23T11:52:34.230Z,85.88
2023-10-23T11:53:34.293Z,85.88
2023-10-23T11:54:34.187Z,85.94
2023-10-23T11:55:34.142Z,86.55
2023-10-23T11:56:34.116Z,85.90
2023-10-23T11:57:34.070Z,85.80
2023-10-23T11:58:34.083Z,85.16
2023-10-23T11:59:34.071Z,84.85
2023-10-23T12:00:33.991Z,85.05
2023-10-23T12:01:33.999Z,85.05
2023-10-23T12:02:33.949Z,84.85
2023-10-23T12:03:33.895Z,84.85
2023-10-23T12:04:33.949Z,83.91
2023-10-23T12:05:33.897Z,83.30
2023-10-23T12:06:33.819Z,83.30
2023-10-23T12:07:33.798Z,83.34
2023-10-23T12:08:33.759Z,83.54
2023-10-23T12:09:33.723Z,82.23
2023-10-23T12:10:33.710Z,82.37
2023-10-23T12:11:33.749Z,82.27
2023-10-23T12:12:33.636Z,82.07
2023-10-23T12:13:33.665Z,81.96
2023-10-23T12:14:33.603Z,81.26
2023-10-23T12:15:33.567Z,80.45
2023-10-23T12:16:33.667Z,80.72
2023-10-23T12:17:33.545Z,80.72
2023-10-23T12:18:33.476Z,80.62
2023-10-23T12:19:33.436Z,80.82
2023-10-23T12:20:33.447Z,79.97
2023-10-23T12:21:33.450Z,79.67
2023-10-23T12:22:33.352Z,79.67
2023-10-23T12:23:33.396Z,79.06
2023-10-23T12:24:33.302Z,79.47
2023-10-23T12:25:33.264Z,79.57
2023-10-23T12:26:33.238Z,79.87
2023-10-23T12:27:33.206Z,79.16
2023-10-23T12:28:33.304Z,79.16
2023-10-23T12:29:33.215Z,78.96
2023-10-23T12:30:33.186Z,79.57
2023-10-23T12:32:00.112Z,79.16
2023-10-23T12:33:11.483Z,79.27
2023-10-23T12:33:38.220Z,80.27
2023-10-23T12:34:33.261Z,80.72
2023-10-23T12:35:33.136Z,81.12
2023-10-23T12:36:32.948Z,82.07
2023-10-23T12:37:32.915Z,81.76
2023-10-23T12:38:32.892Z,83.38
2023-10-23T12:39:32.857Z,83.38
2023-10-23T12:40:36.169Z,83.38
2023-10-23T12:41:32.865Z,83.32
2023-10-23T12:42:32.789Z,83.12
2023-10-23T12:43:32.830Z,83.26
2023-10-23T12:44:32.724Z,83.01
2023-10-23T12:45:33.051Z,83.36
2023-10-23T12:46:32.789Z,83.86
2023-10-23T12:47:32.717Z,84.17
2023-10-23T12:48:32.681Z,83.60
2023-10-23T12:49:32.585Z,83.80
2023-10-23T12:50:32.612Z,83.50
2023-10-23T12:51:32.512Z,83.40
2023-10-23T12:52:32.486Z,83.60
2023-10-23T12:53:32.520Z,84.34